sensor_id;sensor_type;location;lat;lon;timestamp;pressure;altitude;pressure_sealevel;temperature;humidity
34921;BME280;21128;50.016;20.002;2022-09-25T00:01:30;98726.20;;;8.24;100.00
34921;BME280;21128;50.016;20.002;2022-09-25T00:03:58;98723.98;;;8.19;100.00
34921;BME280;21128;50.016;20.002;2022-09-25T00:06:26;98724.27;;;8.16;100.00
34921;BME280;21128;50.016;20.002;2022-09-25T00:08:55;98724.50;;;8.13;100.00
34921;BME280;21128;50.016;20.002;2022-09-25T00:11:28;98715.95;;;8.11;100.00
34921;BME280;21128;50.016;20.002;2022-09-25T00:13:57;98722.52;;;8.05;100.00
34921;BME280;21128;50.016;20.002;2022-09-25T00:16:31;98717.29;;;8.05;100.00
34921;BME280;21128;50.016;20.002;2022-09-25T00:19:04;98714.53;;;8.07;100.00
34921;BME280;21128;50.016;20.002;2022-09-25T00:21:51;98720.73;;;8.06;100.00
34921;BME280;21128;50.016;20.002;2022-09-25T00:24:26;98717.83;;;7.99;100.00
34921;BME280;21128;50.016;20.002;2022-09-25T00:26:53;98719.72;;;7.97;100.00
34921;BME280;21128;50.016;20.002;2022-09-25T00:29:33;98721.64;;;7.95;100.00
34921;BME280;21128;50.016;20.002;2022-09-25T00:32:09;98720.25;;;7.91;100.00
34921;BME280;21128;50.016;20.002;2022-09-25T00:34:43;98715.02;;;7.91;100.00
34921;BME280;21128;50.016;20.002;2022-09-25T00:37:10;98714.06;;;7.92;100.00
34921;BME280;21128;50.016;20.002;2022-09-25T00:39:43;98712.14;;;7.94;100.00
34921;BME280;21128;50.016;20.002;2022-09-25T00:42:12;98709.52;;;7.94;100.00
34921;BME280;21128;50.016;20.002;2022-09-25T00:45:05;98706.63;;;7.97;100.00
34921;BME280;21128;50.016;20.002;2022-09-25T00:47:53;98713.52;;;7.98;100.00
34921;BME280;21128;50.016;20.002;2022-09-25T00:50:35;98710.08;;;7.98;100.00
34921;BME280;21128;50.016;20.002;2022-09-25T00:53:15;98700.20;;;8.01;100.00
34921;BME280;21128;50.016;20.002;2022-09-25T00:55:59;98703.52;;;8.03;100.00
34921;BME280;21128;50.016;20.002;2022-09-25T00:58:34;98700.63;;;8.06;100.00
34921;BME280;21128;50.016;20.002;2022-09-25T01:01:10;98700.25;;;8.11;100.00
34921;BME280;21128;50.016;20.002;2022-09-25T01:03:50;98694.75;;;8.14;100.00
34921;BME280;21128;50.016;20.002;2022-09-25T01:06:17;98695.33;;;8.17;100.00
34921;BME280;21128;50.016;20.002;2022-09-25T01:08:45;98689.97;;;8.19;100.00
34921;BME280;21128;50.016;20.002;2022-09-25T01:11:19;98692.72;;;8.17;100.00
34921;BME280;21128;50.016;20.002;2022-09-25T01:13:54;98689.27;;;8.17;100.00
34921;BME280;21128;50.016;20.002;2022-09-25T01:16:39;98683.21;;;8.16;100.00
34921;BME280;21128;50.016;20.002;2022-09-25T01:23:11;98682.20;;;8.08;100.00
34921;BME280;21128;50.016;20.002;2022-09-25T01:26:03;98668.53;;;8.04;100.00
34921;BME280;21128;50.016;20.002;2022-09-25T01:28:54;98673.08;;;8.02;100.00
34921;BME280;21128;50.016;20.002;2022-09-25T01:31:28;98666.87;;;8.03;100.00
34921;BME280;21128;50.016;20.002;2022-09-25T01:39:59;98673.72;;;7.95;100.00
34921;BME280;21128;50.016;20.002;2022-09-25T01:42:35;98676.70;;;7.90;100.00
34921;BME280;21128;50.016;20.002;2022-09-25T01:45:06;98674.95;;;7.90;100.00
34921;BME280;21128;50.016;20.002;2022-09-25T01:47:36;98675.78;;;7.91;100.00
34921;BME280;21128;50.016;20.002;2022-09-25T01:50:07;98673.98;;;7.92;100.00
34921;BME280;21128;50.016;20.002;2022-09-25T01:52:48;98671.11;;;7.95;100.00
34921;BME280;21128;50.016;20.002;2022-09-25T01:55:35;98673.85;;;7.93;100.00
34921;BME280;21128;50.016;20.002;2022-09-25T02:00:53;98671.38;;;7.92;100.00
34921;BME280;21128;50.016;20.002;2022-09-25T02:03:28;98671.23;;;7.93;100.00
34921;BME280;21128;50.016;20.002;2022-09-25T02:06:01;98663.95;;;7.97;100.00
34921;BME280;21128;50.016;20.002;2022-09-25T02:08:42;98664.64;;;7.99;100.00
34921;BME280;21128;50.016;20.002;2022-09-25T02:11:10;98665.23;;;8.02;100.00
34921;BME280;21128;50.016;20.002;2022-09-25T02:13:52;98671.97;;;8.05;100.00
34921;BME280;21128;50.016;20.002;2022-09-25T02:16:33;98671.84;;;8.06;100.00
34921;BME280;21128;50.016;20.002;2022-09-25T02:19:01;98671.28;;;8.03;100.00
34921;BME280;21128;50.016;20.002;2022-09-25T02:21:54;98676.89;;;7.98;100.00
34921;BME280;21128;50.016;20.002;2022-09-25T02:24:43;98672.63;;;7.97;100.00
34921;BME280;21128;50.016;20.002;2022-09-25T02:27:14;98678.58;;;7.99;100.00
34921;BME280;21128;50.016;20.002;2022-09-25T02:29:41;98680.23;;;8.00;100.00
34921;BME280;21128;50.016;20.002;2022-09-25T02:32:11;98667.84;;;8.02;100.00
34921;BME280;21128;50.016;20.002;2022-09-25T02:34:38;98675.55;;;8.04;100.00
34921;BME280;21128;50.016;20.002;2022-09-25T02:37:13;98663.16;;;8.06;100.00
34921;BME280;21128;50.016;20.002;2022-09-25T02:39:44;98660.86;;;8.12;100.00
34921;BME280;21128;50.016;20.002;2022-09-25T02:42:23;98660.59;;;8.15;100.00
34921;BME280;21128;50.016;20.002;2022-09-25T02:53:41;98665.75;;;8.27;100.00
34921;BME280;21128;50.016;20.002;2022-09-25T02:56:21;98661.07;;;8.30;100.00
34921;BME280;21128;50.016;20.002;2022-09-25T02:58:55;98659.03;;;8.34;100.00
34921;BME280;21128;50.016;20.002;2022-09-25T03:01:32;98656.31;;;8.35;100.00
34921;BME280;21128;50.016;20.002;2022-09-25T03:04:08;98653.28;;;8.40;100.00
34921;BME280;21128;50.016;20.002;2022-09-25T03:06:49;98648.18;;;8.38;100.00
34921;BME280;21128;50.016;20.002;2022-09-25T03:09:18;98650.80;;;8.38;100.00
34921;BME280;21128;50.016;20.002;2022-09-25T03:11:47;98648.31;;;8.37;100.00
34921;BME280;21128;50.016;20.002;2022-09-25T03:14:20;98645.70;;;8.37;100.00
34921;BME280;21128;50.016;20.002;2022-09-25T03:17:02;98642.25;;;8.36;100.00
34921;BME280;21128;50.016;20.002;2022-09-25T03:19:32;98641.98;;;8.39;100.00
34921;BME280;21128;50.016;20.002;2022-09-25T03:22:00;98646.14;;;8.42;100.00
34921;BME280;21128;50.016;20.002;2022-09-25T03:24:34;98637.32;;;8.43;100.00
34921;BME280;21128;50.016;20.002;2022-09-25T03:27:13;98634.70;;;8.43;100.00
34921;BME280;21128;50.016;20.002;2022-09-25T03:29:40;98634.70;;;8.43;100.00
34921;BME280;21128;50.016;20.002;2022-09-25T03:32:14;98634.56;;;8.44;100.00
34921;BME280;21128;50.016;20.002;2022-09-25T03:34:47;98638.70;;;8.47;100.00
34921;BME280;21128;50.016;20.002;2022-09-25T03:37:14;98643.11;;;8.46;100.00
34921;BME280;21128;50.016;20.002;2022-09-25T03:39:47;98641.45;;;8.45;100.00
34921;BME280;21128;50.016;20.002;2022-09-25T03:42:14;98652.20;;;8.42;100.00
34921;BME280;21128;50.016;20.002;2022-09-25T03:44:41;98633.44;;;8.37;100.00
34921;BME280;21128;50.016;20.002;2022-09-25T03:47:15;98633.58;;;8.36;100.00
34921;BME280;21128;50.016;20.002;2022-09-25T03:49:54;98635.23;;;8.37;100.00
34921;BME280;21128;50.016;20.002;2022-09-25T03:52:21;98638.67;;;8.37;100.00
34921;BME280;21128;50.016;20.002;2022-09-25T03:54:55;98630.95;;;8.36;100.00
34921;BME280;21128;50.016;20.002;2022-09-25T03:57:35;98632.47;;;8.38;100.00
34921;BME280;21128;50.016;20.002;2022-09-25T04:00:09;98628.34;;;8.36;100.00
34921;BME280;21128;50.016;20.002;2022-09-25T04:02:49;98628.45;;;8.34;100.00
34921;BME280;21128;50.016;20.002;2022-09-25T04:05:16;98627.52;;;8.35;100.00
34921;BME280;21128;50.016;20.002;2022-09-25T04:07:53;98623.09;;;8.36;100.00
34921;BME280;21128;50.016;20.002;2022-09-25T04:10:33;98620.48;;;8.36;100.00
34921;BME280;21128;50.016;20.002;2022-09-25T04:13:08;98622.27;;;8.35;100.00
34921;BME280;21128;50.016;20.002;2022-09-25T04:15:45;98625.97;;;8.33;100.00
34921;BME280;21128;50.016;20.002;2022-09-25T04:18:24;98625.11;;;8.32;100.00
34921;BME280;21128;50.016;20.002;2022-09-25T04:20:53;98628.69;;;8.31;100.00
34921;BME280;21128;50.016;20.002;2022-09-25T04:23:27;98623.59;;;8.30;100.00
34921;BME280;21128;50.016;20.002;2022-09-25T04:26:07;98626.07;;;8.31;100.00
34921;BME280;21128;50.016;20.002;2022-09-25T04:28:35;98628.97;;;8.28;100.00
34921;BME280;21128;50.016;20.002;2022-09-25T04:31:09;98631.45;;;8.30;100.00
34921;BME280;21128;50.016;20.002;2022-09-25T04:33:51;98620.98;;;8.30;100.00
34921;BME280;21128;50.016;20.002;2022-09-25T04:36:25;98631.45;;;8.30;100.00
34921;BME280;21128;50.016;20.002;2022-09-25T04:39:04;98629.52;;;8.32;100.00
34921;BME280;21128;50.016;20.002;2022-09-25T04:41:31;98630.23;;;8.34;100.00
34921;BME280;21128;50.016;20.002;2022-09-25T04:43:59;98629.30;;;8.35;100.00
34921;BME280;21128;50.016;20.002;2022-09-25T04:46:26;98625.72;;;8.36;100.00
34921;BME280;21128;50.016;20.002;2022-09-25T04:48:59;98625.72;;;8.36;100.00
34921;BME280;21128;50.016;20.002;2022-09-25T04:51:32;98623.09;;;8.36;100.00
34921;BME280;21128;50.016;20.002;2022-09-25T04:53:59;98630.95;;;8.36;100.00
34921;BME280;21128;50.016;20.002;2022-09-25T04:56:25;98628.45;;;8.34;100.00
34921;BME280;21128;50.016;20.002;2022-09-25T04:58:52;98621.45;;;8.35;100.00
34921;BME280;21128;50.016;20.002;2022-09-25T05:01:20;98630.95;;;8.36;100.00
34921;BME280;21128;50.016;20.002;2022-09-25T05:03:53;98626.69;;;8.35;100.00
34921;BME280;21128;50.016;20.002;2022-09-25T05:06:21;98629.30;;;8.35;100.00
34921;BME280;21128;50.016;20.002;2022-09-25T05:08:49;98626.69;;;8.35;100.00
34921;BME280;21128;50.016;20.002;2022-09-25T05:11:16;98626.69;;;8.35;100.00
34921;BME280;21128;50.016;20.002;2022-09-25T05:13:43;98628.88;;;8.39;100.00
34921;BME280;21128;50.016;20.002;2022-09-25T05:16:12;98625.74;;;8.45;100.00
34921;BME280;21128;50.016;20.002;2022-09-25T05:18:39;98630.16;;;8.45;100.00
34921;BME280;21128;50.016;20.002;2022-09-25T05:21:09;98626.84;;;8.43;100.00
34921;BME280;21128;50.016;20.002;2022-09-25T05:23:35;98632.09;;;8.43;100.00
34921;BME280;21128;50.016;20.002;2022-09-25T05:26:02;98630.44;;;8.42;100.00
34921;BME280;21128;50.016;20.002;2022-09-25T05:28:31;98631.95;;;8.44;100.00
34921;BME280;21128;50.016;20.002;2022-09-25T05:30:59;98635.83;;;8.50;100.00
34921;BME280;21128;50.016;20.002;2022-09-25T05:33:31;98631.00;;;8.55;100.00
34921;BME280;21128;50.016;20.002;2022-09-25T05:36:04;98628.82;;;8.60;100.00
34921;BME280;21128;50.016;20.002;2022-09-25T05:38:39;98630.77;;;8.68;100.00
34921;BME280;21128;50.016;20.002;2022-09-25T05:41:13;98623.20;;;8.74;100.00
34921;BME280;21128;50.016;20.002;2022-09-25T05:43:52;98623.60;;;8.80;100.00
34921;BME280;21128;50.016;20.002;2022-09-25T05:46:20;98634.66;;;8.83;100.00
34921;BME280;21128;50.016;20.002;2022-09-25T05:48:54;98632.86;;;8.84;100.00
34921;BME280;21128;50.016;20.002;2022-09-25T05:51:33;98636.85;;;8.88;100.00
34921;BME280;21128;50.016;20.002;2022-09-25T05:54:00;98638.50;;;8.89;100.00
34921;BME280;21128;50.016;20.002;2022-09-25T05:56:34;98644.43;;;8.91;100.00
34921;BME280;21128;50.016;20.002;2022-09-25T05:59:13;98640.88;;;8.92;100.00
34921;BME280;21128;50.016;20.002;2022-09-25T06:01:47;98640.05;;;8.91;100.00
34921;BME280;21128;50.016;20.002;2022-09-25T06:04:26;98636.85;;;8.88;100.00
34921;BME280;21128;50.016;20.002;2022-09-25T06:06:53;98634.38;;;8.86;100.00
34921;BME280;21128;50.016;20.002;2022-09-25T06:09:20;98633.84;;;8.92;100.00
34921;BME280;21128;50.016;20.002;2022-09-25T06:11:47;98638.52;;;8.98;100.00
34921;BME280;21128;50.016;20.002;2022-09-25T06:14:13;98643.07;;;9.06;100.00
34921;BME280;21128;50.016;20.002;2022-09-25T06:16:42;98644.87;;;9.15;100.00
34921;BME280;21128;50.016;20.002;2022-09-25T06:19:09;98642.27;;;9.25;100.00
34921;BME280;21128;50.016;20.002;2022-09-25T06:21:36;98629.16;;;9.35;100.00
34921;BME280;21128;50.016;20.002;2022-09-25T06:24:03;98630.25;;;9.42;100.00
34921;BME280;21128;50.016;20.002;2022-09-25T06:26:32;98624.84;;;9.53;100.00
34921;BME280;21128;50.016;20.002;2022-09-25T06:28:59;98638.47;;;9.66;100.00
34921;BME280;21128;50.016;20.002;2022-09-25T06:31:26;98639.30;;;9.76;100.00
34921;BME280;21128;50.016;20.002;2022-09-25T06:33:53;98635.83;;;9.85;100.00
34921;BME280;21128;50.016;20.002;2022-09-25T06:36:26;98637.19;;;9.90;100.00
34921;BME280;21128;50.016;20.002;2022-09-25T06:38:53;98642.16;;;9.93;100.00
34921;BME280;21128;50.016;20.002;2022-09-25T06:41:22;98632.05;;;9.98;100.00
34921;BME280;21128;50.016;20.002;2022-09-25T06:43:49;98641.30;;;10.02;100.00
34921;BME280;21128;50.016;20.002;2022-09-25T06:46:18;98642.51;;;10.07;100.00
34921;BME280;21128;50.016;20.002;2022-09-25T06:48:53;98647.34;;;10.12;100.00
34921;BME280;21128;50.016;20.002;2022-09-25T06:51:27;98635.87;;;10.13;100.00
34921;BME280;21128;50.016;20.002;2022-09-25T06:54:03;98636.54;;;10.15;100.00
34921;BME280;21128;50.016;20.002;2022-09-25T06:56:30;98634.33;;;10.20;100.00
34921;BME280;21128;50.016;20.002;2022-09-25T06:58:57;98632.10;;;10.25;100.00
34921;BME280;21128;50.016;20.002;2022-09-25T07:01:31;98629.73;;;10.32;100.00
34921;BME280;21128;50.016;20.002;2022-09-25T07:04:11;98622.25;;;10.37;100.00
34921;BME280;21128;50.016;20.002;2022-09-25T07:06:38;98626.11;;;10.42;100.00
34921;BME280;21128;50.016;20.002;2022-09-25T07:09:06;98620.92;;;10.51;100.00
34921;BME280;21128;50.016;20.002;2022-09-25T07:11:39;98627.39;;;10.56;100.00
34921;BME280;21128;50.016;20.002;2022-09-25T07:14:20;98619.09;;;10.61;100.00
34921;BME280;21128;50.016;20.002;2022-09-25T07:16:47;98624.55;;;10.67;100.00
34921;BME280;21128;50.016;20.002;2022-09-25T07:19:21;98626.32;;;10.77;100.00
34921;BME280;21128;50.016;20.002;2022-09-25T07:22:00;98632.18;;;10.88;100.00
34921;BME280;21128;50.016;20.002;2022-09-25T07:24:30;98630.02;;;11.02;100.00
34921;BME280;21128;50.016;20.002;2022-09-25T07:27:03;98629.95;;;11.11;100.00
34921;BME280;21128;50.016;20.002;2022-09-25T07:29:30;98630.02;;;11.19;100.00
34921;BME280;21128;50.016;20.002;2022-09-25T07:31:57;98616.94;;;11.27;100.00
34921;BME280;21128;50.016;20.002;2022-09-25T07:34:25;98630.83;;;11.38;100.00
34921;BME280;21128;50.016;20.002;2022-09-25T07:36:52;98629.37;;;11.43;100.00
34921;BME280;21128;50.016;20.002;2022-09-25T07:39:20;98629.91;;;11.47;100.00
34921;BME280;21128;50.016;20.002;2022-09-25T07:41:47;98624.33;;;11.50;100.00
34921;BME280;21128;50.016;20.002;2022-09-25T07:44:14;98628.00;;;11.57;100.00
34921;BME280;21128;50.016;20.002;2022-09-25T07:46:41;98621.00;;;11.66;100.00
34921;BME280;21128;50.016;20.002;2022-09-25T07:49:09;98623.69;;;11.74;100.00
34921;BME280;21128;50.016;20.002;2022-09-25T07:51:36;98624.22;;;11.77;100.00
34921;BME280;21128;50.016;20.002;2022-09-25T07:54:04;98628.05;;;11.83;100.00
34921;BME280;21128;50.016;20.002;2022-09-25T07:56:31;98626.45;;;11.90;100.00
34921;BME280;21128;50.016;20.002;2022-09-25T07:59:00;98626.50;;;11.98;100.00
34921;BME280;21128;50.016;20.002;2022-09-25T08:01:34;98622.92;;;12.07;100.00
34921;BME280;21128;50.016;20.002;2022-09-25T08:04:01;98628.23;;;12.16;100.00
34921;BME280;21128;50.016;20.002;2022-09-25T08:06:35;98632.27;;;12.28;100.00
34921;BME280;21128;50.016;20.002;2022-09-25T08:09:10;98627.69;;;12.38;100.00
34921;BME280;21128;50.016;20.002;2022-09-25T08:11:38;98623.94;;;12.49;100.00
34921;BME280;21128;50.016;20.002;2022-09-25T08:14:05;98628.58;;;12.55;100.00
34921;BME280;21128;50.016;20.002;2022-09-25T08:16:32;98625.64;;;12.66;100.00
34921;BME280;21128;50.016;20.002;2022-09-25T08:18:58;98615.47;;;12.79;100.00
34921;BME280;21128;50.016;20.002;2022-09-25T08:21:25;98612.34;;;12.92;100.00
34921;BME280;21128;50.016;20.002;2022-09-25T08:23:53;98612.70;;;12.97;100.00
34921;BME280;21128;50.016;20.002;2022-09-25T08:26:21;98613.53;;;13.06;100.00
34921;BME280;21128;50.016;20.002;2022-09-25T08:28:55;98617.82;;;13.15;100.00
34921;BME280;21128;50.016;20.002;2022-09-25T08:31:22;98616.66;;;13.17;100.00
34921;BME280;21128;50.016;20.002;2022-09-25T08:33:49;98619.13;;;13.11;100.00
34921;BME280;21128;50.016;20.002;2022-09-25T08:36:16;98606.44;;;13.06;100.00
34921;BME280;21128;50.016;20.002;2022-09-25T08:38:44;98609.42;;;13.03;100.00
34921;BME280;21128;50.016;20.002;2022-09-25T08:41:13;98616.17;;;13.06;100.00
34921;BME280;21128;50.016;20.002;2022-09-25T08:50:02;98607.27;;;13.15;100.00
34921;BME280;21128;50.016;20.002;2022-09-25T08:52:30;98608.47;;;13.20;100.00
34921;BME280;21128;50.016;20.002;2022-09-25T08:54:58;98602.86;;;13.32;100.00
34921;BME280;21128;50.016;20.002;2022-09-25T08:57:29;98610.12;;;13.46;100.00
34921;BME280;21128;50.016;20.002;2022-09-25T09:00:04;98602.34;;;13.44;100.00
34921;BME280;21128;50.016;20.002;2022-09-25T09:02:39;98600.86;;;13.50;100.00
34921;BME280;21128;50.016;20.002;2022-09-25T09:05:29;98593.92;;;13.65;100.00
34921;BME280;21128;50.016;20.002;2022-09-25T09:08:13;98590.25;;;13.83;100.00
34921;BME280;21128;50.016;20.002;2022-09-25T09:10:42;98585.58;;;14.01;100.00
34921;BME280;21128;50.016;20.002;2022-09-25T09:15:47;98574.52;;;14.05;100.00
34921;BME280;21128;50.016;20.002;2022-09-25T09:18:28;98576.95;;;14.15;100.00
34921;BME280;21128;50.016;20.002;2022-09-25T09:20:58;98578.39;;;14.26;100.00
34921;BME280;21128;50.016;20.002;2022-09-25T09:26:25;98566.56;;;14.45;100.00
34921;BME280;21128;50.016;20.002;2022-09-25T09:29:14;98566.55;;;14.53;100.00
34921;BME280;21128;50.016;20.002;2022-09-25T09:35:16;98561.66;;;14.73;100.00
34921;BME280;21128;50.016;20.002;2022-09-25T09:41:05;98554.06;;;14.70;100.00
34921;BME280;21128;50.016;20.002;2022-09-25T09:49:45;98561.76;;;14.56;100.00
34921;BME280;21128;50.016;20.002;2022-09-25T09:52:20;98563.91;;;14.53;100.00
34921;BME280;21128;50.016;20.002;2022-09-25T09:57:51;98556.70;;;14.39;100.00
34921;BME280;21128;50.016;20.002;2022-09-25T10:00:21;98560.20;;;14.31;100.00
34921;BME280;21128;50.016;20.002;2022-09-25T10:02:58;98556.06;;;14.28;99.96
34921;BME280;21128;50.016;20.002;2022-09-25T10:05:48;98567.50;;;14.21;99.87
34921;BME280;21128;50.016;20.002;2022-09-25T10:08:16;98568.03;;;14.16;99.97
34921;BME280;21128;50.016;20.002;2022-09-25T10:10:51;98556.67;;;14.07;100.00
34921;BME280;21128;50.016;20.002;2022-09-25T10:13:30;98559.48;;;14.06;100.00
34921;BME280;21128;50.016;20.002;2022-09-25T10:16:15;98545.45;;;14.05;100.00
34921;BME280;21128;50.016;20.002;2022-09-25T10:18:52;98541.84;;;13.98;100.00
34921;BME280;21128;50.016;20.002;2022-09-25T10:21:39;98542.14;;;14.03;100.00
34921;BME280;21128;50.016;20.002;2022-09-25T10:30:05;98544.45;;;14.06;100.00
34921;BME280;21128;50.016;20.002;2022-09-25T10:35:27;98531.53;;;14.12;100.00
34921;BME280;21128;50.016;20.002;2022-09-25T10:38:03;98544.92;;;14.10;100.00
34921;BME280;21128;50.016;20.002;2022-09-25T10:40:37;98539.64;;;14.10;100.00
34921;BME280;21128;50.016;20.002;2022-09-25T10:43:25;98534.53;;;14.08;100.00
34921;BME280;21128;50.016;20.002;2022-09-25T10:46:04;98540.64;;;14.09;100.00
34921;BME280;21128;50.016;20.002;2022-09-25T10:48:39;98535.03;;;14.04;100.00
34921;BME280;21128;50.016;20.002;2022-09-25T10:51:37;98542.48;;;14.00;100.00
34921;BME280;21128;50.016;20.002;2022-09-25T10:54:12;98538.67;;;14.03;100.00
34921;BME280;21128;50.016;20.002;2022-09-25T10:56:41;98542.31;;;14.02;100.00
34921;BME280;21128;50.016;20.002;2022-09-25T10:59:19;98540.67;;;14.01;100.00
34921;BME280;21128;50.016;20.002;2022-09-25T11:01:54;98544.48;;;13.98;100.00
34921;BME280;21128;50.016;20.002;2022-09-25T11:04:28;98538.03;;;14.01;100.00
34921;BME280;21128;50.016;20.002;2022-09-25T11:07:16;98541.81;;;14.06;100.00
34921;BME280;21128;50.016;20.002;2022-09-25T11:09:53;98541.46;;;14.09;99.85
34921;BME280;21128;50.016;20.002;2022-09-25T11:12:25;98533.36;;;14.11;99.89
34921;BME280;21128;50.016;20.002;2022-09-25T11:15:03;98531.39;;;14.13;100.00
34921;BME280;21128;50.016;20.002;2022-09-25T11:17:44;98536.32;;;14.16;100.00
34921;BME280;21128;50.016;20.002;2022-09-25T11:28:55;98529.42;;;14.07;100.00
34921;BME280;21128;50.016;20.002;2022-09-25T11:31:48;98524.78;;;14.09;100.00
34921;BME280;21128;50.016;20.002;2022-09-25T11:34:21;98526.11;;;14.13;100.00
34921;BME280;21128;50.016;20.002;2022-09-25T11:37:13;98530.72;;;14.11;100.00
34921;BME280;21128;50.016;20.002;2022-09-25T11:45:42;98532.06;;;14.07;100.00
34921;BME280;21128;50.016;20.002;2022-09-25T11:48:49;98528.42;;;14.08;100.00
34921;BME280;21128;50.016;20.002;2022-09-25T11:51:51;98520.00;;;14.13;100.00
34921;BME280;21128;50.016;20.002;2022-09-25T11:54:56;98511.40;;;14.11;100.00
34921;BME280;21128;50.016;20.002;2022-09-25T11:58:09;98497.37;;;14.10;100.00
34921;BME280;21128;50.016;20.002;2022-09-25T12:04:05;98501.97;;;14.16;100.00
34921;BME280;21128;50.016;20.002;2022-09-25T12:06:54;98503.79;;;14.16;100.00
34921;BME280;21128;50.016;20.002;2022-09-25T12:09:53;98506.25;;;14.17;100.00
34921;BME280;21128;50.016;20.002;2022-09-25T12:12:41;98493.69;;;14.19;100.00
34921;BME280;21128;50.016;20.002;2022-09-25T12:21:07;98481.25;;;14.28;100.00
34921;BME280;21128;50.016;20.002;2022-09-25T12:23:48;98469.17;;;14.33;100.00
34921;BME280;21128;50.016;20.002;2022-09-25T12:26:33;98469.12;;;14.42;100.00
34921;BME280;21128;50.016;20.002;2022-09-25T12:39:58;98442.73;;;14.33;99.44
34921;BME280;21128;50.016;20.002;2022-09-25T12:51:18;98458.59;;;14.33;100.00
34921;BME280;21128;50.016;20.002;2022-09-25T12:54:00;98452.03;;;14.29;99.82
34921;BME280;21128;50.016;20.002;2022-09-25T12:56:36;98457.83;;;14.25;99.42
34921;BME280;21128;50.016;20.002;2022-09-25T12:59:12;98453.72;;;14.22;99.43
34921;BME280;21128;50.016;20.002;2022-09-25T13:02:07;98449.53;;;14.28;99.99
34921;BME280;21128;50.016;20.002;2022-09-25T13:05:08;98446.56;;;14.31;100.00
34921;BME280;21128;50.016;20.002;2022-09-25T13:07:58;98449.39;;;14.29;99.81
34921;BME280;21128;50.016;20.002;2022-09-25T13:13:29;98437.81;;;14.30;100.00
34921;BME280;21128;50.016;20.002;2022-09-25T13:16:04;98436.09;;;14.37;100.00
34921;BME280;21128;50.016;20.002;2022-09-25T13:18:46;98436.27;;;14.36;100.00
34921;BME280;21128;50.016;20.002;2022-09-25T13:21:28;98439.64;;;14.30;100.00
34921;BME280;21128;50.016;20.002;2022-09-25T13:24:13;98440.33;;;14.24;100.00
34921;BME280;21128;50.016;20.002;2022-09-25T13:26:58;98448.58;;;14.21;100.00
34921;BME280;21128;50.016;20.002;2022-09-25T13:29:32;98436.38;;;14.20;100.00
34921;BME280;21128;50.016;20.002;2022-09-25T13:32:03;98438.87;;;14.21;100.00
34921;BME280;21128;50.016;20.002;2022-09-25T13:34:36;98438.87;;;14.21;100.00
34921;BME280;21128;50.016;20.002;2022-09-25T13:37:11;98442.48;;;14.20;100.00
34921;BME280;21128;50.016;20.002;2022-09-25T13:39:54;98444.48;;;14.18;100.00
34921;BME280;21128;50.016;20.002;2022-09-25T13:42:41;98452.77;;;14.15;100.00
34921;BME280;21128;50.016;20.002;2022-09-25T13:45:34;98442.89;;;14.09;100.00
34921;BME280;21128;50.016;20.002;2022-09-25T13:48:11;98437.78;;;14.07;100.00
34921;BME280;21128;50.016;20.002;2022-09-25T13:50:43;98440.93;;;14.03;100.00
34921;BME280;21128;50.016;20.002;2022-09-25T13:53:22;98447.03;;;14.03;100.00
34921;BME280;21128;50.016;20.002;2022-09-25T13:59:00;98429.22;;;14.05;100.00
34921;BME280;21128;50.016;20.002;2022-09-25T14:01:46;98434.50;;;14.05;100.00
34921;BME280;21128;50.016;20.002;2022-09-25T14:04:34;98429.36;;;14.04;100.00
34921;BME280;21128;50.016;20.002;2022-09-25T14:07:18;98430.27;;;13.96;100.00
34921;BME280;21128;50.016;20.002;2022-09-25T14:09:56;98424.52;;;13.85;100.00
34921;BME280;21128;50.016;20.002;2022-09-25T14:12:33;98427.56;;;13.73;100.00
34921;BME280;21128;50.016;20.002;2022-09-25T14:15:22;98421.31;;;13.66;100.00
34921;BME280;21128;50.016;20.002;2022-09-25T14:17:56;98417.67;;;13.67;100.00
34921;BME280;21128;50.016;20.002;2022-09-25T14:20:44;98415.39;;;13.64;100.00
34921;BME280;21128;50.016;20.002;2022-09-25T14:25:45;98417.71;;;13.59;100.00
34921;BME280;21128;50.016;20.002;2022-09-25T14:28:29;98432.58;;;13.52;100.00
34921;BME280;21128;50.016;20.002;2022-09-25T14:39:44;98409.20;;;13.41;100.00
34921;BME280;21128;50.016;20.002;2022-09-25T14:43:16;98393.73;;;13.38;100.00
34921;BME280;21128;50.016;20.002;2022-09-25T14:45:59;98399.00;;;13.38;100.00
34921;BME280;21128;50.016;20.002;2022-09-25T14:48:51;98393.73;;;13.38;100.00
34921;BME280;21128;50.016;20.002;2022-09-25T14:51:26;98390.09;;;13.39;100.00
34921;BME280;21128;50.016;20.002;2022-09-25T14:53:57;98393.73;;;13.38;100.00
34921;BME280;21128;50.016;20.002;2022-09-25T14:56:28;98384.98;;;13.37;100.00
34921;BME280;21128;50.016;20.002;2022-09-25T14:58:59;98389.27;;;13.38;100.00
34921;BME280;21128;50.016;20.002;2022-09-25T15:01:30;98391.09;;;13.38;100.00
34921;BME280;21128;50.016;20.002;2022-09-25T15:04:03;98393.73;;;13.38;100.00
34921;BME280;21128;50.016;20.002;2022-09-25T15:06:36;98398.18;;;13.37;100.00
34921;BME280;21128;50.016;20.002;2022-09-25T15:09:28;98397.33;;;13.37;100.00
34921;BME280;21128;50.016;20.002;2022-09-25T15:11:55;98379.03;;;13.35;100.00
34921;BME280;21128;50.016;20.002;2022-09-25T15:14:22;98385.13;;;13.36;100.00
34921;BME280;21128;50.016;20.002;2022-09-25T15:16:49;98389.27;;;13.38;100.00
34921;BME280;21128;50.016;20.002;2022-09-25T15:19:40;98377.89;;;13.38;100.00
34921;BME280;21128;50.016;20.002;2022-09-25T15:22:14;98373.44;;;13.38;100.00
34921;BME280;21128;50.016;20.002;2022-09-25T15:24:49;98370.62;;;13.40;100.00